Back to Top

Language: 

My Weather Underground Personal Weather Station Historical Data with Graphs...

Delerius Weather Station Historical Data
Daily Summary for April 10, 2017 Units:  Metric    English   Both
« Previous Day
Next Day »
Daily Weekly Monthly Yearly Custom
  High: Low: Average:
Temperature: 13.8 °C 6.6 °C 9.8 °C
Dew Point: 5.7 °C 2.2 °C 4.3 °C
Humidity: 81 % 54 % 69 %
Wind Speed: 24.1 km/h 6.4 km/h 16.1 km/h
Wind Gust: 46.7 km/h - -
Wind:- - WNW
Pressure: 1027 hPa 1019.5 hPa -
Precipitation: 0 mm    
Historical Graphs
 
 
Tabular Data for April 10, 2017
Time Temperature Dew Point Pressure Wind Wind Speed Wind Gust Humidity Rainfall Rate (Hourly) solar Conditions
00:02 9.1 °C 5.7 °C 1019.5 hPa WNW 16.1 km/h 30.6 km/h 79 % 0 mm 0 W/m2
00:07 8.9 °C 5.3 °C 1019.5 hPa WNW 16.1 km/h 30.6 km/h 78 % 0 mm 0 W/m2
00:12 8.9 °C 5.3 °C 1019.5 hPa WNW 16.1 km/h 29 km/h 78 % 0 mm 0 W/m2
00:17 8.8 °C 5 °C 1019.9 hPa NW 16.1 km/h 30.6 km/h 77 % 0 mm 0 W/m2
00:22 8.7 °C 4.7 °C 1019.9 hPa WNW 16.1 km/h 30.6 km/h 76 % 0 mm 0 W/m2
00:27 8.6 °C 4.4 °C 1019.5 hPa WNW 16.1 km/h 38.6 km/h 75 % 0 mm 0 W/m2
00:32 8.6 °C 4.2 °C 1019.9 hPa WNW 17.7 km/h 38.6 km/h 74 % 0 mm 0 W/m2
00:37 8.5 °C 3.9 °C 1019.9 hPa WNW 16.1 km/h 35.4 km/h 73 % 0 mm 0 W/m2
00:42 8.4 °C 4.1 °C 1019.9 hPa WNW 16.1 km/h 30.6 km/h 74 % 0 mm 0 W/m2
00:47 8.4 °C 4.1 °C 1019.9 hPa WNW 17.7 km/h 35.4 km/h 74 % 0 mm 0 W/m2
00:52 8.3 °C 3.9 °C 1019.9 hPa WNW 19.3 km/h 35.4 km/h 74 % 0 mm 0 W/m2
00:57 8.2 °C 3.8 °C 1019.9 hPa WNW 17.7 km/h 32.2 km/h 74 % 0 mm 0 W/m2
01:02 8.1 °C 3.9 °C 1019.9 hPa WNW 16.1 km/h 29 km/h 75 % 0 mm 0 W/m2
01:07 8.1 °C 3.9 °C 1020.2 hPa NW 14.5 km/h 25.7 km/h 75 % 0 mm 0 W/m2
01:08 8.1 °C 4.1 °C 1020.2 hPa NW 14.5 km/h 25.7 km/h 76 % 0 mm 0 W/m2
01:13 7.9 °C 4.1 °C 1019.9 hPa WNW 14.5 km/h 33.8 km/h 77 % 0 mm 0 W/m2
01:18 7.8 °C 4.2 °C 1019.9 hPa WNW 17.7 km/h 40.2 km/h 78 % 0 mm 0 W/m2
01:23 7.7 °C 4.1 °C 1020.2 hPa WNW 19.3 km/h 40.2 km/h 78 % 0 mm 0 W/m2
01:28 7.6 °C 4.2 °C 1020.2 hPa WNW 16.1 km/h 38.6 km/h 79 % 0 mm 0 W/m2
01:33 7.5 °C 3.9 °C 1020.2 hPa WNW 16.1 km/h 30.6 km/h 78 % 0 mm 0 W/m2
01:38 7.3 °C 3.7 °C 1020.2 hPa WNW 17.7 km/h 33.8 km/h 78 % 0 mm 0 W/m2
01:43 7.3 °C 3.7 °C 1020.2 hPa WNW 16.1 km/h 33.8 km/h 78 % 0 mm 0 W/m2
01:48 7.2 °C 3.4 °C 1020.2 hPa WNW 16.1 km/h 32.2 km/h 77 % 0 mm 0 W/m2
01:53 7.1 °C 3.2 °C 1020.2 hPa WNW 16.1 km/h 32.2 km/h 76 % 0 mm 0 W/m2
01:58 7.1 °C 3.2 °C 1020.2 hPa WNW 16.1 km/h 32.2 km/h 76 % 0 mm 0 W/m2
02:03 7.1 °C 3.3 °C 1020.2 hPa WNW 17.7 km/h 32.2 km/h 77 % 0 mm 0 W/m2
02:08 7.1 °C 3.5 °C 1020.2 hPa WNW 17.7 km/h 35.4 km/h 78 % 0 mm 0 W/m2
02:13 7 °C 3.4 °C 1020.2 hPa WNW 17.7 km/h 35.4 km/h 78 % 0 mm 0 W/m2
02:18 6.9 °C 3.5 °C 1020.2 hPa NW 14.5 km/h 33.8 km/h 79 % 0 mm 0 W/m2
02:23 6.8 °C 3.2 °C 1020.5 hPa NW 14.5 km/h 33.8 km/h 78 % 0 mm 0 W/m2
02:28 6.8 °C 3.1 °C 1020.5 hPa NW 14.5 km/h 25.7 km/h 77 % 0 mm 0 W/m2
02:34 6.7 °C 2.6 °C 1020.2 hPa NW 14.5 km/h 29 km/h 75 % 0 mm 0 W/m2
02:39 6.7 °C 2.4 °C 1020.5 hPa NW 17.7 km/h 30.6 km/h 74 % 0 mm 0 W/m2
02:44 6.7 °C 2.4 °C 1020.9 hPa NW 17.7 km/h 30.6 km/h 74 % 0 mm 0 W/m2
02:49 6.7 °C 2.4 °C 1020.5 hPa NW 16.1 km/h 29 km/h 74 % 0 mm 0 W/m2
02:54 6.7 °C 2.2 °C 1020.5 hPa WNW 17.7 km/h 35.4 km/h 73 % 0 mm 0 W/m2
02:59 6.7 °C 2.4 °C 1020.5 hPa WNW 19.3 km/h 35.4 km/h 74 % 0 mm 0 W/m2
03:04 6.7 °C 2.4 °C 1020.9 hPa WNW 19.3 km/h 45.1 km/h 74 % 0 mm 0 W/m2
03:09 6.7 °C 2.4 °C 1021.2 hPa WNW 16.1 km/h 45.1 km/h 74 % 0 mm 0 W/m2
03:14 6.7 °C 2.6 °C 1021.2 hPa NW 12.9 km/h 29 km/h 75 % 0 mm 0 W/m2
03:19 6.6 °C 2.5 °C 1021.2 hPa WNW 12.9 km/h 20.9 km/h 75 % 0 mm 0 W/m2
03:24 6.6 °C 2.7 °C 1021.6 hPa West 14.5 km/h 25.7 km/h 76 % 0 mm 0 W/m2
03:29 6.6 °C 2.7 °C 1021.6 hPa West 12.9 km/h 25.7 km/h 76 % 0 mm 0 W/m2
03:34 6.6 °C 2.8 °C 1021.6 hPa WNW 11.3 km/h 19.3 km/h 77 % 0 mm 0 W/m2
03:39 6.6 °C 2.8 °C 1021.6 hPa WNW 9.7 km/h 19.3 km/h 77 % 0 mm 0 W/m2
03:44 6.6 °C 2.8 °C 1021.6 hPa WNW 9.7 km/h 17.7 km/h 77 % 0 mm 0 W/m2
03:49 6.6 °C 3.1 °C 1021.6 hPa WNW 8 km/h 17.7 km/h 78 % 0 mm 0 W/m2
03:54 6.6 °C 3.1 °C 1021.6 hPa WNW 6.4 km/h 19.3 km/h 78 % 0 mm 0 W/m2
03:59 6.6 °C 3.1 °C 1021.6 hPa NW 8 km/h 20.9 km/h 78 % 0 mm 0 W/m2
04:04 6.6 °C 3.2 °C 1021.6 hPa WNW 9.7 km/h 20.9 km/h 79 % 0 mm 0 W/m2
04:09 6.7 °C 3.3 °C 1021.6 hPa WNW 11.3 km/h 17.7 km/h 79 % 0 mm 0 W/m2
04:14 6.7 °C 3.3 °C 1021.6 hPa WNW 9.7 km/h 16.1 km/h 79 % 0 mm 0 W/m2
04:19 6.8 °C 3.6 °C 1021.9 hPa WNW 9.7 km/h 14.5 km/h 80 % 0 mm 0 W/m2
04:24 6.8 °C 3.6 °C 1021.6 hPa WNW 9.7 km/h 19.3 km/h 80 % 0 mm 0 W/m2
04:29 6.9 °C 3.7 °C 1021.9 hPa WNW 11.3 km/h 19.3 km/h 80 % 0 mm 0 W/m2
04:34 7 °C 3.9 °C 1021.9 hPa WNW 12.9 km/h 22.5 km/h 81 % 0 mm 0 W/m2
04:39 7.1 °C 4.1 °C 1021.9 hPa WNW 12.9 km/h 22.5 km/h 81 % 0 mm 0 W/m2
04:44 7.1 °C 4.1 °C 1021.9 hPa WNW 11.3 km/h 17.7 km/h 81 % 0 mm 0 W/m2
04:49 7.1 °C 4.1 °C 1021.9 hPa West 11.3 km/h 24.1 km/h 81 % 0 mm 0 W/m2
04:54 7.2 °C 4.2 °C 1021.9 hPa West 11.3 km/h 24.1 km/h 81 % 0 mm 0 W/m2
04:59 7.2 °C 4.2 °C 1021.9 hPa West 12.9 km/h 20.9 km/h 81 % 0 mm 0 W/m2
05:04 7.3 °C 4.1 °C 1021.9 hPa West 14.5 km/h 22.5 km/h 80 % 0 mm 0 W/m2
05:09 7.3 °C 4.3 °C 1021.9 hPa West 14.5 km/h 25.7 km/h 81 % 0 mm 0 W/m2
05:14 7.4 °C 4.2 °C 1021.9 hPa WNW 14.5 km/h 25.7 km/h 80 % 0 mm 0 W/m2
05:19 7.4 °C 4.2 °C 1021.9 hPa WNW 12.9 km/h 20.9 km/h 80 % 0 mm 0 W/m2
05:24 7.4 °C 4.2 °C 1021.9 hPa WNW 11.3 km/h 17.7 km/h 80 % 0 mm 0 W/m2
05:30 7.4 °C 4.2 °C 1021.9 hPa WNW 11.3 km/h 22.5 km/h 80 % 0 mm 0 W/m2
05:35 7.4 °C 4.2 °C 1022.2 hPa WNW 11.3 km/h 22.5 km/h 80 % 0 mm 0 W/m2
05:40 7.4 °C 4.2 °C 1022.2 hPa WNW 11.3 km/h 22.5 km/h 80 % 0 mm 0 W/m2
05:45 7.4 °C 4.2 °C 1022.2 hPa WNW 11.3 km/h 22.5 km/h 80 % 0 mm 0 W/m2
05:50 7.5 °C 4.3 °C 1022.2 hPa WNW 12.9 km/h 24.1 km/h 80 % 0 mm 0 W/m2
05:55 7.5 °C 4.3 °C 1022.2 hPa WNW 16.1 km/h 24.1 km/h 80 % 0 mm 0 W/m2
06:00 7.5 °C 4.3 °C 1022.2 hPa WNW 19.3 km/h 37 km/h 80 % 0 mm 0 W/m2
06:05 7.6 °C 4.6 °C 1022.2 hPa WNW 17.7 km/h 37 km/h 81 % 0 mm 0 W/m2
06:10 7.5 °C 4.4 °C 1022.2 hPa WNW 16.1 km/h 32.2 km/h 81 % 0 mm 0 W/m2
06:15 7.4 °C 4.3 °C 1022.2 hPa WNW 17.7 km/h 33.8 km/h 81 % 0 mm 5 W/m2
06:20 7.4 °C 4.2 °C 1022.6 hPa WNW 17.7 km/h 33.8 km/h 80 % 0 mm 7 W/m2
06:25 7.3 °C 4.1 °C 1022.6 hPa WNW 16.1 km/h 30.6 km/h 80 % 0 mm 7 W/m2
06:30 7.2 °C 4 °C 1022.6 hPa WNW 14.5 km/h 25.7 km/h 80 % 0 mm 12 W/m2
06:35 7.1 °C 3.9 °C 1022.6 hPa WNW 14.5 km/h 25.7 km/h 80 % 0 mm 14 W/m2
06:40 7.1 °C 3.9 °C 1022.6 hPa WNW 16.1 km/h 33.8 km/h 80 % 0 mm 14 W/m2
06:45 7 °C 3.9 °C 1022.2 hPa WNW 17.7 km/h 33.8 km/h 81 % 0 mm 14 W/m2
06:50 7 °C 3.8 °C 1022.2 hPa WNW 20.9 km/h 33.8 km/h 80 % 0 mm 14 W/m2
06:55 7 °C 3.8 °C 1022.2 hPa WNW 20.9 km/h 35.4 km/h 80 % 0 mm 16 W/m2
07:00 6.9 °C 3.7 °C 1022.6 hPa WNW 16.1 km/h 35.4 km/h 80 % 0 mm 19 W/m2
07:05 6.9 °C 3.7 °C 1022.6 hPa WNW 12.9 km/h 30.6 km/h 80 % 0 mm 23 W/m2
07:10 6.9 °C 3.9 °C 1022.6 hPa WNW 14.5 km/h 30.6 km/h 81 % 0 mm 30 W/m2
07:15 7 °C 3.9 °C 1022.6 hPa WNW 16.1 km/h 30.6 km/h 81 % 0 mm 26 W/m2
07:20 7 °C 3.9 °C 1022.6 hPa WNW 17.7 km/h 30.6 km/h 81 % 0 mm 26 W/m2
07:25 7.1 °C 4.1 °C 1022.9 hPa WNW 19.3 km/h 35.4 km/h 81 % 0 mm 30 W/m2
07:30 7.1 °C 4.1 °C 1022.9 hPa WNW 20.9 km/h 37 km/h 81 % 0 mm 32 W/m2
07:35 7.2 °C 4.2 °C 1022.9 hPa WNW 19.3 km/h 37 km/h 81 % 0 mm 37 W/m2
07:40 7.3 °C 4.1 °C 1022.9 hPa WNW 19.3 km/h 41.8 km/h 80 % 0 mm 146 W/m2
07:46 7.5 °C 4.3 °C 1022.9 hPa WNW 19.3 km/h 41.8 km/h 80 % 0 mm 185 W/m2
07:51 7.6 °C 4.2 °C 1022.9 hPa WNW 19.3 km/h 33.8 km/h 79 % 0 mm 95 W/m2
07:56 7.7 °C 4.3 °C 1022.9 hPa WNW 19.3 km/h 35.4 km/h 79 % 0 mm 186 W/m2
08:01 7.8 °C 4.4 °C 1022.9 hPa WNW 19.3 km/h 35.4 km/h 79 % 0 mm 223 W/m2
08:06 8.1 °C 4.5 °C 1023.2 hPa WNW 17.7 km/h 30.6 km/h 78 % 0 mm 241 W/m2
08:11 8.3 °C 4.7 °C 1022.9 hPa WNW 16.1 km/h 32.2 km/h 78 % 0 mm 253 W/m2
08:16 8.6 °C 4.8 °C 1023.2 hPa WNW 16.1 km/h 32.2 km/h 77 % 0 mm 271 W/m2
08:21 8.8 °C 4.8 °C 1023.2 hPa WNW 17.7 km/h 38.6 km/h 76 % 0 mm 285 W/m2
08:26 8.9 °C 4.7 °C 1022.9 hPa WNW 19.3 km/h 38.6 km/h 75 % 0 mm 301 W/m2
08:31 9 °C 4.6 °C 1023.2 hPa WNW 22.5 km/h 40.2 km/h 74 % 0 mm 318 W/m2
08:36 9.1 °C 4.7 °C 1023.2 hPa WNW 19.3 km/h 40.2 km/h 74 % 0 mm 330 W/m2
08:41 9.2 °C 4.8 °C 1023.2 hPa WNW 19.3 km/h 38.6 km/h 74 % 0 mm 343 W/m2
08:46 9.4 °C 4.8 °C 1023.2 hPa WNW 22.5 km/h 38.6 km/h 73 % 0 mm 359 W/m2
08:51 9.4 °C 4.6 °C 1023.2 hPa WNW 22.5 km/h 38.6 km/h 72 % 0 mm 373 W/m2
08:56 9.6 °C 4.6 °C 1023.6 hPa WNW 22.5 km/h 37 km/h 71 % 0 mm 385 W/m2
09:00 9.7 °C 4.7 °C 1023.6 hPa WNW 20.9 km/h 37 km/h 71 % 0 mm 397 W/m2
09:05 9.7 °C 4.5 °C 1023.6 hPa WNW 22.5 km/h 40.2 km/h 70 % 0 mm 413 W/m2
09:10 9.8 °C 4.6 °C 1023.6 hPa WNW 22.5 km/h 40.2 km/h 70 % 0 mm 424 W/m2
09:15 9.8 °C 4.4 °C 1023.6 hPa WNW 24.1 km/h 43.5 km/h 69 % 0 mm 436 W/m2
09:20 10 °C 4.3 °C 1023.6 hPa WNW 24.1 km/h 43.5 km/h 68 % 0 mm 452 W/m2
09:25 10.1 °C 4.2 °C 1023.9 hPa WNW 22.5 km/h 46.7 km/h 67 % 0 mm 466 W/m2
09:30 10.3 °C 4.4 °C 1023.9 hPa WNW 22.5 km/h 46.7 km/h 67 % 0 mm 478 W/m2
09:35 10.4 °C 4.3 °C 1023.9 hPa WNW 20.9 km/h 40.2 km/h 66 % 0 mm 492 W/m2
09:40 10.6 °C 4.5 °C 1023.9 hPa WNW 19.3 km/h 37 km/h 66 % 0 mm 508 W/m2
09:45 10.8 °C 4.5 °C 1023.9 hPa NW 19.3 km/h 37 km/h 65 % 0 mm 508 W/m2
09:50 10.8 °C 4.3 °C 1023.9 hPa NW 22.5 km/h 37 km/h 64 % 0 mm 545 W/m2
09:55 11 °C 4.2 °C 1023.9 hPa NW 22.5 km/h 37 km/h 63 % 0 mm 548 W/m2
10:00 11.2 °C 4.4 °C 1023.9 hPa WNW 19.3 km/h 35.4 km/h 63 % 0 mm 547 W/m2
10:05 11.3 °C 4.3 °C 1023.9 hPa NW 20.9 km/h 35.4 km/h 62 % 0 mm 529 W/m2
10:10 11.6 °C 4.6 °C 1023.9 hPa NW 17.7 km/h 35.4 km/h 62 % 0 mm 540 W/m2
10:15 11.8 °C 4.3 °C 1023.9 hPa WNW 17.7 km/h 35.4 km/h 60 % 0 mm 533 W/m2
10:20 11.8 °C 4.3 °C 1024.3 hPa WNW 20.9 km/h 40.2 km/h 60 % 0 mm 520 W/m2
10:25 11.8 °C 4.3 °C 1024.3 hPa WNW 20.9 km/h 40.2 km/h 60 % 0 mm 599 W/m2
10:30 11.9 °C 4.8 °C 1024.3 hPa WNW 20.9 km/h 35.4 km/h 62 % 0 mm 603 W/m2
10:35 12.1 °C 4.8 °C 1024.3 hPa WNW 20.9 km/h 41.8 km/h 61 % 0 mm 601 W/m2
10:40 12 °C 4.7 °C 1024.3 hPa WNW 22.5 km/h 41.8 km/h 61 % 0 mm 401 W/m2
10:45 11.8 °C 4.7 °C 1024.6 hPa WNW 24.1 km/h 41.8 km/h 62 % 0 mm 353 W/m2
10:50 11.7 °C 4.7 °C 1024.6 hPa WNW 22.5 km/h 41.8 km/h 62 % 0 mm 612 W/m2
10:55 11.7 °C 4.7 °C 1024.3 hPa WNW 19.3 km/h 33.8 km/h 62 % 0 mm 359 W/m2
11:00 11.7 °C 4.9 °C 1024.6 hPa WNW 17.7 km/h 35.4 km/h 63 % 0 mm 427 W/m2
11:06 11.6 °C 5 °C 1024.6 hPa WNW 19.3 km/h 35.4 km/h 64 % 0 mm 427 W/m2
11:11 11.8 °C 5.2 °C 1024.6 hPa WNW 19.3 km/h 35.4 km/h 64 % 0 mm 427 W/m2
11:16 12.3 °C 5.4 °C 1024.6 hPa NW 17.7 km/h 29 km/h 63 % 0 mm 868 W/m2
11:21 12.6 °C 5.5 °C 1024.6 hPa WNW 17.7 km/h 35.4 km/h 62 % 0 mm 881 W/m2
11:26 12.6 °C 5.3 °C 1024.6 hPa WNW 20.9 km/h 35.4 km/h 61 % 0 mm 301 W/m2
11:31 12.3 °C 5.2 °C 1024.6 hPa WNW 20.9 km/h 38.6 km/h 62 % 0 mm 768 W/m2
11:36 12.3 °C 5.2 °C 1024.6 hPa WNW 22.5 km/h 38.6 km/h 62 % 0 mm 766 W/m2
11:41 12.5 °C 5.4 °C 1024.6 hPa WNW 22.5 km/h 35.4 km/h 62 % 0 mm 754 W/m2
11:46 12.6 °C 5.1 °C 1024.6 hPa WNW 19.3 km/h 33.8 km/h 60 % 0 mm 789 W/m2
11:51 12.8 °C 5.4 °C 1024.6 hPa NW 16.1 km/h 33.8 km/h 61 % 0 mm 846 W/m2
11:56 13.1 °C 5.7 °C 1024.6 hPa NW 14.5 km/h 29 km/h 61 % 0 mm 1049 W/m2
12:01 13.3 °C 5.4 °C 1024.6 hPa WNW 14.5 km/h 29 km/h 59 % 0 mm 186 W/m2
12:06 13 °C 5.2 °C 1024.9 hPa WNW 16.1 km/h 29 km/h 59 % 0 mm 178 W/m2
12:11 12.7 °C 5.4 °C 1024.9 hPa WNW 14.5 km/h 29 km/h 61 % 0 mm 925 W/m2
12:16 12.8 °C 5 °C 1024.9 hPa WNW 16.1 km/h 30.6 km/h 59 % 0 mm 258 W/m2
12:21 12.6 °C 4.8 °C 1024.9 hPa WNW 17.7 km/h 32.2 km/h 59 % 0 mm 257 W/m2
12:26 12.4 °C 4.3 °C 1024.9 hPa NW 16.1 km/h 32.2 km/h 58 % 0 mm 183 W/m2
12:31 12.1 °C 4.3 °C 1024.9 hPa NW 16.1 km/h 32.2 km/h 59 % 0 mm 332 W/m2
12:36 12.2 °C 4.9 °C 1024.9 hPa WNW 17.7 km/h 32.2 km/h 61 % 0 mm 664 W/m2
12:41 12.4 °C 4.8 °C 1024.9 hPa WNW 17.7 km/h 32.2 km/h 60 % 0 mm 454 W/m2
12:46 12.6 °C 5.1 °C 1024.9 hPa WNW 17.7 km/h 29 km/h 60 % 0 mm 431 W/m2
12:51 12.7 °C 4.7 °C 1024.9 hPa WNW 16.1 km/h 29 km/h 58 % 0 mm 346 W/m2
12:56 12.7 °C 4.7 °C 1024.9 hPa NW 12.9 km/h 24.1 km/h 58 % 0 mm 274 W/m2
13:01 12.7 °C 4.7 °C 1024.9 hPa WNW 12.9 km/h 29 km/h 58 % 0 mm 223 W/m2
13:06 12.6 °C 4.8 °C 1024.9 hPa WNW 16.1 km/h 29 km/h 59 % 0 mm 243 W/m2
13:11 12.5 °C 4.4 °C 1025.3 hPa WNW 14.5 km/h 29 km/h 58 % 0 mm 213 W/m2
13:16 12.3 °C 4.5 °C 1025.3 hPa WNW 14.5 km/h 22.5 km/h 59 % 0 mm 248 W/m2
13:21 12.4 °C 4.8 °C 1024.9 hPa WNW 14.5 km/h 22.5 km/h 60 % 0 mm 288 W/m2
13:26 12.4 °C 4.8 °C 1024.9 hPa WNW 14.5 km/h 32.2 km/h 60 % 0 mm 316 W/m2
13:31 12.3 °C 4.8 °C 1024.9 hPa WNW 16.1 km/h 32.2 km/h 60 % 0 mm 306 W/m2
13:36 12.3 °C 4.8 °C 1025.3 hPa WNW 16.1 km/h 29 km/h 60 % 0 mm 322 W/m2
13:41 12.3 °C 4.5 °C 1025.3 hPa WNW 16.1 km/h 25.7 km/h 59 % 0 mm 425 W/m2
13:46 12.4 °C 4.6 °C 1024.9 hPa WNW 14.5 km/h 25.7 km/h 59 % 0 mm 566 W/m2
13:51 12.7 °C 4.7 °C 1024.9 hPa West 14.5 km/h 24.1 km/h 58 % 0 mm 552 W/m2
13:55 12.8 °C 4.7 °C 1024.9 hPa West 14.5 km/h 24.1 km/h 58 % 0 mm 457 W/m2
14:00 13.1 °C 5 °C 1024.9 hPa West 14.5 km/h 22.5 km/h 58 % 0 mm 1002 W/m2
14:05 13.4 °C 5.3 °C 1025.3 hPa West 16.1 km/h 25.7 km/h 58 % 0 mm 998 W/m2
14:10 13.5 °C 5.2 °C 1025.3 hPa West 16.1 km/h 25.7 km/h 57 % 0 mm 392 W/m2
14:15 13.5 °C 4.9 °C 1025.3 hPa West 14.5 km/h 25.7 km/h 56 % 0 mm 819 W/m2
14:20 13.6 °C 5 °C 1025.3 hPa West 14.5 km/h 29 km/h 56 % 0 mm 316 W/m2
14:25 13.3 °C 4.7 °C 1025.3 hPa WNW 16.1 km/h 29 km/h 56 % 0 mm 267 W/m2
14:30 13.2 °C 4.6 °C 1025.6 hPa WNW 16.1 km/h 25.7 km/h 56 % 0 mm 288 W/m2
14:35 13.1 °C 4.8 °C 1025.3 hPa WNW 14.5 km/h 25.7 km/h 57 % 0 mm 285 W/m2
14:40 13 °C 4.9 °C 1024.9 hPa WNW 14.5 km/h 25.7 km/h 58 % 0 mm 301 W/m2
14:45 12.9 °C 4.8 °C 1024.9 hPa WNW 14.5 km/h 25.7 km/h 58 % 0 mm 336 W/m2
14:50 13 °C 4.9 °C 1024.9 hPa WNW 14.5 km/h 24.1 km/h 58 % 0 mm 404 W/m2
14:55 13.2 °C 5.1 °C 1024.9 hPa WNW 14.5 km/h 24.1 km/h 58 % 0 mm 432 W/m2
15:00 13.3 °C 4.7 °C 1024.9 hPa WNW 14.5 km/h 22.5 km/h 56 % 0 mm 432 W/m2
15:05 13.3 °C 4.9 °C 1024.9 hPa WNW 16.1 km/h 25.7 km/h 57 % 0 mm 411 W/m2
15:10 13.1 °C 5 °C 1025.3 hPa West 19.3 km/h 33.8 km/h 58 % 0 mm 429 W/m2
15:15 13.3 °C 5.2 °C 1025.3 hPa West 19.3 km/h 33.8 km/h 58 % 0 mm 417 W/m2
15:20 13.3 °C 4.7 °C 1025.3 hPa West 17.7 km/h 30.6 km/h 56 % 0 mm 490 W/m2
15:25 13.3 °C 4.7 °C 1025.3 hPa West 17.7 km/h 30.6 km/h 56 % 0 mm 343 W/m2
15:30 13.3 °C 4.7 °C 1025.3 hPa WNW 17.7 km/h 29 km/h 56 % 0 mm 858 W/m2
15:35 13.5 °C 4.9 °C 1025.3 hPa WNW 17.7 km/h 29 km/h 56 % 0 mm 388 W/m2
15:40 13.5 °C 4.9 °C 1025.3 hPa WNW 17.7 km/h 32.2 km/h 56 % 0 mm 538 W/m2
15:46 13.7 °C 5.3 °C 1025.3 hPa WNW 16.1 km/h 32.2 km/h 57 % 0 mm 580 W/m2
15:51 13.8 °C 5.4 °C 1025.3 hPa West 17.7 km/h 32.2 km/h 57 % 0 mm 642 W/m2
15:56 13.7 °C 4.6 °C 1025.3 hPa WNW 19.3 km/h 32.2 km/h 54 % 0 mm 223 W/m2
16:01 13.2 °C 4.6 °C 1025.3 hPa WNW 17.7 km/h 30.6 km/h 56 % 0 mm 279 W/m2
16:05 13.1 °C 4.8 °C 1025.3 hPa WNW 17.7 km/h 32.2 km/h 57 % 0 mm 236 W/m2
16:11 13.2 °C 5.1 °C 1024.9 hPa WNW 16.1 km/h 32.2 km/h 58 % 0 mm 294 W/m2
16:16 13.2 °C 5.1 °C 1025.3 hPa WNW 16.1 km/h 29 km/h 58 % 0 mm 257 W/m2
16:21 13.2 °C 4.8 °C 1024.9 hPa WNW 16.1 km/h 32.2 km/h 57 % 0 mm 526 W/m2
16:25 13.3 °C 4.7 °C 1024.9 hPa WNW 16.1 km/h 32.2 km/h 56 % 0 mm 501 W/m2
16:31 13.3 °C 4.9 °C 1025.3 hPa WNW 16.1 km/h 32.2 km/h 57 % 0 mm 635 W/m2
16:35 13.6 °C 5.2 °C 1024.9 hPa WNW 16.1 km/h 33.8 km/h 57 % 0 mm 504 W/m2
16:40 13.6 °C 5 °C 1025.3 hPa WNW 17.7 km/h 33.8 km/h 56 % 0 mm 415 W/m2
16:45 13.4 °C 4.6 °C 1024.9 hPa West 19.3 km/h 33.8 km/h 55 % 0 mm 403 W/m2
16:51 13.3 °C 4.7 °C 1024.9 hPa West 17.7 km/h 30.6 km/h 56 % 0 mm 457 W/m2
16:55 13.3 °C 5.2 °C 1024.9 hPa West 16.1 km/h 30.6 km/h 58 % 0 mm 406 W/m2
17:01 13.3 °C 5.2 °C 1024.9 hPa West 16.1 km/h 25.7 km/h 58 % 0 mm 366 W/m2
17:06 13.2 °C 5.1 °C 1024.9 hPa WNW 16.1 km/h 29 km/h 58 % 0 mm 355 W/m2
17:11 13.2 °C 4.8 °C 1024.9 hPa WNW 16.1 km/h 30.6 km/h 57 % 0 mm 362 W/m2
17:16 13.2 °C 5.3 °C 1024.9 hPa WNW 17.7 km/h 32.2 km/h 59 % 0 mm 378 W/m2
17:21 13.2 °C 5.1 °C 1024.9 hPa WNW 17.7 km/h 32.2 km/h 58 % 0 mm 362 W/m2
17:26 13.3 °C 5.4 °C 1025.3 hPa WNW 16.1 km/h 32.2 km/h 59 % 0 mm 343 W/m2
17:31 13.3 °C 4.9 °C 1025.3 hPa WNW 16.1 km/h 35.4 km/h 57 % 0 mm 283 W/m2
17:36 13 °C 4.7 °C 1025.3 hPa WNW 20.9 km/h 35.4 km/h 57 % 0 mm 322 W/m2
17:41 13 °C 4.9 °C 1025.3 hPa WNW 20.9 km/h 33.8 km/h 58 % 0 mm 304 W/m2
17:46 12.9 °C 5.1 °C 1025.3 hPa WNW 19.3 km/h 33.8 km/h 59 % 0 mm 285 W/m2
17:51 12.9 °C 5.3 °C 1025.3 hPa WNW 17.7 km/h 33.8 km/h 60 % 0 mm 262 W/m2
17:56 12.9 °C 5.3 °C 1025.3 hPa WNW 17.7 km/h 32.2 km/h 60 % 0 mm 253 W/m2
18:01 12.8 °C 5.4 °C 1025.3 hPa WNW 17.7 km/h 32.2 km/h 61 % 0 mm 244 W/m2
18:06 12.7 °C 5.4 °C 1025.3 hPa WNW 17.7 km/h 38.6 km/h 61 % 0 mm 230 W/m2
18:11 12.7 °C 5.4 °C 1025.3 hPa WNW 17.7 km/h 38.6 km/h 61 % 0 mm 211 W/m2
18:16 12.6 °C 5.1 °C 1025.3 hPa WNW 19.3 km/h 35.4 km/h 60 % 0 mm 193 W/m2
18:21 12.4 °C 5.1 °C 1025.3 hPa WNW 17.7 km/h 35.4 km/h 61 % 0 mm 181 W/m2
18:26 12.3 °C 5.2 °C 1025.6 hPa WNW 17.7 km/h 30.6 km/h 62 % 0 mm 171 W/m2
18:31 12.1 °C 5.3 °C 1025.6 hPa WNW 17.7 km/h 33.8 km/h 63 % 0 mm 163 W/m2
18:36 12.1 °C 5.3 °C 1025.6 hPa West 17.7 km/h 33.8 km/h 63 % 0 mm 146 W/m2
18:41 11.9 °C 5.1 °C 1025.6 hPa WNW 16.1 km/h 30.6 km/h 63 % 0 mm 125 W/m2
18:46 11.8 °C 5.2 °C 1025.6 hPa West 17.7 km/h 30.6 km/h 64 % 0 mm 77 W/m2
18:51 11.6 °C 5.2 °C 1025.6 hPa West 14.5 km/h 25.7 km/h 65 % 0 mm 53 W/m2
18:56 11.4 °C 5.3 °C 1025.6 hPa West 11.3 km/h 25.7 km/h 66 % 0 mm 39 W/m2
19:01 11.2 °C 5.1 °C 1025.6 hPa WNW 11.3 km/h 22.5 km/h 66 % 0 mm 42 W/m2
19:06 11 °C 4.9 °C 1025.6 hPa WNW 12.9 km/h 32.2 km/h 66 % 0 mm 42 W/m2
19:11 10.8 °C 4.7 °C 1025.6 hPa WNW 16.1 km/h 32.2 km/h 66 % 0 mm 42 W/m2
19:16 10.7 °C 4.8 °C 1025.6 hPa WNW 17.7 km/h 33.8 km/h 67 % 0 mm 39 W/m2
19:21 10.6 °C 4.9 °C 1025.6 hPa WNW 19.3 km/h 33.8 km/h 68 % 0 mm 30 W/m2
19:26 10.5 °C 4.8 °C 1025.6 hPa WNW 17.7 km/h 32.2 km/h 68 % 0 mm 25 W/m2
19:31 10.4 °C 4.9 °C 1025.6 hPa WNW 14.5 km/h 25.7 km/h 69 % 0 mm 19 W/m2
19:36 10.3 °C 4.8 °C 1025.6 hPa WNW 14.5 km/h 24.1 km/h 69 % 0 mm 18 W/m2
19:41 10.2 °C 4.9 °C 1025.6 hPa WNW 16.1 km/h 24.1 km/h 70 % 0 mm 14 W/m2
19:46 10.1 °C 5.1 °C 1025.6 hPa West 14.5 km/h 24.1 km/h 71 % 0 mm 9 W/m2
19:51 10 °C 4.8 °C 1025.6 hPa WNW 16.1 km/h 30.6 km/h 70 % 0 mm 5 W/m2
19:56 9.9 °C 4.7 °C 1026 hPa WNW 16.1 km/h 30.6 km/h 70 % 0 mm 0 W/m2
20:01 9.8 °C 4.8 °C 1026 hPa WNW 14.5 km/h 29 km/h 71 % 0 mm 0 W/m2
20:06 9.7 °C 4.9 °C 1026 hPa WNW 16.1 km/h 25.7 km/h 72 % 0 mm 0 W/m2
20:11 9.6 °C 4.8 °C 1026 hPa WNW 16.1 km/h 24.1 km/h 72 % 0 mm 0 W/m2
20:16 9.5 °C 4.9 °C 1026 hPa WNW 14.5 km/h 24.1 km/h 73 % 0 mm 0 W/m2
20:21 9.4 °C 4.8 °C 1026 hPa WNW 12.9 km/h 22.5 km/h 73 % 0 mm 0 W/m2
20:26 9.3 °C 4.9 °C 1026.3 hPa WNW 14.5 km/h 25.7 km/h 74 % 0 mm 0 W/m2
20:32 9.2 °C 4.8 °C 1026.3 hPa WNW 16.1 km/h 30.6 km/h 74 % 0 mm 0 W/m2
20:37 9.1 °C 4.7 °C 1026.3 hPa West 17.7 km/h 30.6 km/h 74 % 0 mm 0 W/m2
20:42 9.1 °C 4.7 °C 1026.3 hPa West 14.5 km/h 29 km/h 74 % 0 mm 0 W/m2
20:47 8.9 °C 4.7 °C 1026.3 hPa WNW 14.5 km/h 30.6 km/h 75 % 0 mm 0 W/m2
20:52 8.9 °C 4.7 °C 1026.3 hPa WNW 16.1 km/h 30.6 km/h 75 % 0 mm 0 W/m2
20:57 8.8 °C 4.4 °C 1026.3 hPa WNW 14.5 km/h 29 km/h 74 % 0 mm 0 W/m2
21:02 8.8 °C 4.4 °C 1026.3 hPa WNW 16.1 km/h 25.7 km/h 74 % 0 mm 0 W/m2
21:07 8.8 °C 4.4 °C 1026.3 hPa WNW 16.1 km/h 25.7 km/h 74 % 0 mm 0 W/m2
21:12 8.8 °C 4.2 °C 1026.3 hPa WNW 16.1 km/h 25.7 km/h 73 % 0 mm 0 W/m2
21:17 8.7 °C 4.1 °C 1026.3 hPa WNW 16.1 km/h 25.7 km/h 73 % 0 mm 0 W/m2
21:22 8.7 °C 3.9 °C 1026.3 hPa WNW 14.5 km/h 22.5 km/h 72 % 0 mm 0 W/m2
21:27 8.7 °C 3.9 °C 1026.3 hPa WNW 14.5 km/h 24.1 km/h 72 % 0 mm 0 W/m2
21:32 8.7 °C 3.7 °C 1026.6 hPa WNW 14.5 km/h 24.1 km/h 71 % 0 mm 0 W/m2
21:37 8.7 °C 3.7 °C 1026.6 hPa WNW 12.9 km/h 29 km/h 71 % 0 mm 0 W/m2
21:42 8.7 °C 3.6 °C 1026.6 hPa WNW 14.5 km/h 29 km/h 70 % 0 mm 0 W/m2
21:47 8.6 °C 3.4 °C 1026.6 hPa WNW 14.5 km/h 22.5 km/h 70 % 0 mm 0 W/m2
21:52 8.6 °C 3.4 °C 1027 hPa WNW 14.5 km/h 24.1 km/h 70 % 0 mm 0 W/m2
21:57 8.6 °C 3.4 °C 1027 hPa WNW 14.5 km/h 24.1 km/h 70 % 0 mm 0 W/m2
22:02 8.6 °C 3.6 °C 1027 hPa WNW 14.5 km/h 24.1 km/h 71 % 0 mm 0 W/m2
22:07 8.6 °C 3.6 °C 1027 hPa WNW 14.5 km/h 24.1 km/h 71 % 0 mm 0 W/m2
22:12 8.5 °C 3.7 °C 1027 hPa WNW 12.9 km/h 20.9 km/h 72 % 0 mm 0 W/m2
22:17 8.4 °C 3.8 °C 1027 hPa WNW 12.9 km/h 20.9 km/h 73 % 0 mm 0 W/m2
22:22 8.3 °C 3.7 °C 1027 hPa WNW 12.9 km/h 20.9 km/h 73 % 0 mm 0 W/m2
22:27 8.3 °C 3.9 °C 1027 hPa WNW 12.9 km/h 20.9 km/h 74 % 0 mm 0 W/m2
22:32 8.3 °C 3.9 °C 1027 hPa WNW 11.3 km/h 20.9 km/h 74 % 0 mm 0 W/m2
22:38 8.3 °C 3.9 °C 1027 hPa WNW 12.9 km/h 20.9 km/h 74 % 0 mm 0 W/m2
22:43 8.2 °C 3.8 °C 1027 hPa WNW 12.9 km/h 20.9 km/h 74 % 0 mm 0 W/m2
22:48 8.2 °C 4.1 °C 1027 hPa WNW 12.9 km/h 20.9 km/h 75 % 0 mm 0 W/m2
22:53 8.2 °C 4.1 °C 1027 hPa WNW 12.9 km/h 20.9 km/h 75 % 0 mm 0 W/m2
22:58 8.2 °C 4.1 °C 1027 hPa WNW 12.9 km/h 22.5 km/h 75 % 0 mm 0 W/m2
23:03 8.1 °C 3.9 °C 1027 hPa WNW 12.9 km/h 22.5 km/h 75 % 0 mm 0 W/m2
23:08 8.1 °C 3.9 °C 1027 hPa WNW 12.9 km/h 20.9 km/h 75 % 0 mm 0 W/m2
23:13 8 °C 3.8 °C 1027 hPa WNW 12.9 km/h 20.9 km/h 75 % 0 mm 0 W/m2
23:18 7.9 °C 3.7 °C 1027 hPa WNW 12.9 km/h 20.9 km/h 75 % 0 mm 0 W/m2
23:23 7.9 °C 3.7 °C 1027 hPa WNW 12.9 km/h 24.1 km/h 75 % 0 mm 0 W/m2
23:24 7.8 °C 3.7 °C 1027 hPa WNW 12.9 km/h 24.1 km/h 75 % 0 mm 0 W/m2
23:29 7.8 °C 3.7 °C 1027 hPa WNW 12.9 km/h 24.1 km/h 75 % 0 mm 0 W/m2
23:34 7.7 °C 3.7 °C 1027 hPa WNW 11.3 km/h 22.5 km/h 76 % 0 mm 0 W/m2
23:39 7.6 °C 3.4 °C 1027 hPa WNW 11.3 km/h 19.3 km/h 75 % 0 mm 0 W/m2
23:44 7.5 °C 3.6 °C 1027 hPa WNW 11.3 km/h 19.3 km/h 76 % 0 mm 0 W/m2
23:49 7.4 °C 3.4 °C 1026.6 hPa WNW 11.3 km/h 19.3 km/h 76 % 0 mm 0 W/m2
23:54 7.3 °C 3.6 °C 1026.6 hPa WNW 12.9 km/h 19.3 km/h 77 % 0 mm 0 W/m2
23:59 7.2 °C 3.4 °C 1026.6 hPa WNW 12.9 km/h 24.1 km/h 77 % 0 mm 0 W/m2
Delerius-Weather
Compliments of Weather Underground - 2.25 mb

Data updates at regular intervals.